Bath Springs, Tennessee
Current Conditions -  °F | °C
As of 1:35 AM on Sunday 23 Nov 2014 (Local Time) from KPVE Reporting Station
Overcast Overcast  
Wind Chill: 57°   Ceiling: 2500
Heat Index: 57°   Visibility: 10mi
Dew Point: 46°   Wind: 7mph
Humidity: 67%   Direction: 150°SSE
Pressure: 29.94"   Gusts: NA
Location:  35.44°N, 88.09°W
Report Text: KPVE 230735Z AUTO 15006KT 10SM OVC025 14/08 A2994 RMK
Loading
Personal Weather Stations






























Interactive Weather Map New forecast layout! Learn more

10-Day Weather Forecast

Advertisements
Track Severe Weather on mobile